createdAt,value
2022-11-16T00:04:11.882Z,11.77
2022-11-16T00:14:15.882Z,11.59
2022-11-16T00:24:19.787Z,11.80
2022-11-16T00:34:24.085Z,11.65
2022-11-16T00:44:26.614Z,11.79
2022-11-16T00:54:30.450Z,11.92
2022-11-16T01:04:32.943Z,12.01
2022-11-16T01:14:37.146Z,11.63
2022-11-16T01:24:39.644Z,11.63
2022-11-16T01:34:43.593Z,11.67
2022-11-16T01:44:56.104Z,11.88
2022-11-16T01:55:00.330Z,11.87
2022-11-16T02:05:03.549Z,11.92
2022-11-16T02:15:13.574Z,11.95
2022-11-16T02:25:20.077Z,11.94
2022-11-16T02:35:27.315Z,12.02
2022-11-16T02:45:32.507Z,12.01
2022-11-16T02:55:37.181Z,12.23
2022-11-16T03:05:41.379Z,12.18
2022-11-16T03:15:45.321Z,11.98
2022-11-16T03:25:50.327Z,12.11
2022-11-16T03:35:57.705Z,12.07
2022-11-16T03:46:00.202Z,12.13
2022-11-16T03:56:04.102Z,12.09
2022-11-16T04:06:24.324Z,12.04
2022-11-16T04:16:45.441Z,12.20
2022-11-16T04:27:06.993Z,12.03
2022-11-16T04:37:30.255Z,11.98
2022-11-16T04:47:32.901Z,12.03
2022-11-16T04:57:36.743Z,12.05
2022-11-16T05:07:39.209Z,12.29
2022-11-16T05:17:43.022Z,12.21
2022-11-16T05:27:45.489Z,12.10
2022-11-16T05:37:49.401Z,12.06
2022-11-16T05:47:51.847Z,11.70
2022-11-16T05:57:55.772Z,11.92
2022-11-16T06:07:58.255Z,11.92
2022-11-16T06:18:02.094Z,12.11
2022-11-16T06:28:07.882Z,12.08
2022-11-16T06:38:13.788Z,12.11
2022-11-16T06:48:16.314Z,12.08
2022-11-16T06:58:20.318Z,12.13
2022-11-16T07:08:22.941Z,12.20
2022-11-16T07:18:27.379Z,12.28
2022-11-16T07:28:30.765Z,12.20
2022-11-16T07:38:35.210Z,12.37
2022-11-16T07:48:37.915Z,12.14
2022-11-16T07:58:41.717Z,12.45
2022-11-16T08:08:44.445Z,12.42
2022-11-16T08:18:48.295Z,12.57
2022-11-16T08:28:53.674Z,12.03
2022-11-16T08:38:58.090Z,11.97
2022-11-16T08:49:00.548Z,12.54
2022-11-16T08:59:04.403Z,12.32
2022-11-16T09:09:06.925Z,12.45
2022-11-16T09:19:10.732Z,12.65
2022-11-16T09:29:13.970Z,12.70
2022-11-16T09:39:33.520Z,12.61
2022-11-16T09:49:39.077Z,12.93
2022-11-16T09:59:46.299Z,13.66
2022-11-16T10:09:48.906Z,14.04
2022-11-16T10:19:55.367Z,14.00
2022-11-16T10:30:03.220Z,13.67
2022-11-16T10:40:16.651Z,13.54
2022-11-16T10:50:27.247Z,13.55
2022-11-16T11:00:38.910Z,13.99
2022-11-16T11:10:42.325Z,13.76
2022-11-16T11:20:47.792Z,15.28
2022-11-16T11:30:54.982Z,15.58
2022-11-16T11:40:59.910Z,15.39
2022-11-16T11:51:04.058Z,16.30
2022-11-16T12:01:25.254Z,16.70
2022-11-16T12:11:34.059Z,17.41
2022-11-16T12:21:44.470Z,18.50
2022-11-16T12:31:57.228Z,19.05
2022-11-16T12:42:18.526Z,20.22
2022-11-16T12:52:28.661Z,18.50
2022-11-16T13:02:37.083Z,18.52
2022-11-16T13:12:41.468Z,18.27
2022-11-16T13:22:50.802Z,18.45
2022-11-16T13:33:04.252Z,17.29
2022-11-16T13:43:15.178Z,17.59
2022-11-16T13:54:25.192Z,17.41
2022-11-16T14:03:51.321Z,16.93
2022-11-16T14:13:55.250Z,16.43
2022-11-16T14:24:08.145Z,16.27
2022-11-16T14:34:18.320Z,15.61
2022-11-16T14:44:22.592Z,15.61
2022-11-16T14:54:31.167Z,15.67
2022-11-16T15:04:33.845Z,15.55
2022-11-16T15:14:39.283Z,15.22
2022-11-16T15:24:41.780Z,15.14
2022-11-16T15:34:47.604Z,15.02
2022-11-16T15:44:50.496Z,13.51
2022-11-16T15:55:05.213Z,13.44
2022-11-16T16:05:08.096Z,13.37
2022-11-16T16:15:25.952Z,13.33
2022-11-16T16:25:29.567Z,13.22
2022-11-16T16:35:33.508Z,12.65
2022-11-16T16:45:38.039Z,12.48
2022-11-16T16:55:42.027Z,12.20
2022-11-16T17:05:44.602Z,12.12
2022-11-16T17:15:48.409Z,12.05
2022-11-16T17:25:50.902Z,11.86
2022-11-16T17:35:57.813Z,11.89
2022-11-16T17:46:04.176Z,11.70
2022-11-16T17:56:08.475Z,11.51
2022-11-16T18:06:13.215Z,11.19
2022-11-16T18:16:18.401Z,11.40
2022-11-16T18:26:22.455Z,11.32
2022-11-16T18:36:26.508Z,11.14
2022-11-16T18:46:29.675Z,11.09
2022-11-16T18:56:36.213Z,10.91
2022-11-16T19:06:38.683Z,10.85
2022-11-16T19:16:52.476Z,10.78
2022-11-16T19:26:55.354Z,10.80
2022-11-16T19:36:59.235Z,10.89
2022-11-16T19:47:01.719Z,10.89
2022-11-16T19:57:05.591Z,10.77
2022-11-16T20:07:09.640Z,10.38
2022-11-16T20:17:13.543Z,10.26
2022-11-16T20:27:16.329Z,10.30
2022-11-16T20:37:20.617Z,10.18
2022-11-16T20:47:23.128Z,10.16
2022-11-16T20:57:26.941Z,10.09
2022-11-16T21:07:30.724Z,9.98
2022-11-16T21:17:34.626Z,10.04
2022-11-16T21:27:37.163Z,9.97
2022-11-16T21:37:41.214Z,9.92
2022-11-16T21:47:43.710Z,10.05
2022-11-16T21:57:47.568Z,9.96
2022-11-16T22:07:50.069Z,9.99
2022-11-16T22:17:53.895Z,10.07
2022-11-16T22:28:19.602Z,10.17
2022-11-16T22:38:20.359Z,10.22
2022-11-16T22:48:22.894Z,10.26
2022-11-16T22:58:26.742Z,10.92
2022-11-16T23:08:29.308Z,11.24
2022-11-16T23:18:33.316Z,11.10
2022-11-16T23:28:36.005Z,11.33
2022-11-16T23:38:39.801Z,10.67
2022-11-16T23:48:42.274Z,11.20
2022-11-16T23:58:46.159Z,11.17
